Time;durP1;ratioP1;P1;durP2;ratioP2;P2;SDS_P1;SDS_P2;PMS_P1;PMS_P2;Temp;Humidity;BMP_temperature;BMP_pressure;BME280_temperature;BME280_humidity;BME280_pressure;Samples;Min_cycle;Max_cycle;Signal;HPM_P1;HPM_P2
2023/05/20 00:00:38;;;;;;;2.90;2.07;;;;;;;14.37;100.00;99525.00;5090176;28;20628;-73
2023/05/20 00:03:05;;;;;;;5.13;2.40;;;;;;;14.39;100.00;99528.28;5090067;28;20198;-67
2023/05/20 00:05:33;;;;;;;4.07;2.77;;;;;;;14.22;100.00;99533.03;5089945;28;20198;-67
2023/05/20 00:08:03;;;;;;;7.10;3.00;;;;;;;14.20;100.00;99540.06;5089747;28;20231;-67
2023/05/20 00:10:30;;;;;;;3.00;2.33;;;;;;;14.32;100.00;99542.59;5089703;28;20304;-67
2023/05/20 00:12:57;;;;;;;4.10;2.47;;;;;;;14.31;100.00;99538.34;5089914;28;20640;-67
2023/05/20 00:15:24;;;;;;;5.10;2.70;;;;;;;14.34;100.00;99540.69;5089703;28;20283;-73
2023/05/20 00:17:50;;;;;;;3.07;2.10;;;;;;;14.32;100.00;99537.44;5089882;28;20200;-67
2023/05/20 00:20:17;;;;;;;8.43;3.20;;;;;;;14.33;100.00;99532.16;5089825;28;20202;-73
2023/05/20 00:22:45;;;;;;;3.40;2.13;;;;;;;14.26;100.00;99536.97;5089510;28;20210;-73
2023/05/20 00:25:13;;;;;;;4.03;2.33;;;;;;;14.22;100.00;99527.91;5089566;28;20247;-73
2023/05/20 00:27:40;;;;;;;4.03;2.73;;;;;;;14.18;100.00;99529.06;5089496;28;20198;-67
2023/05/20 00:30:08;;;;;;;3.37;2.17;;;;;;;14.20;100.00;99524.63;5089370;28;20230;-67
2023/05/20 00:32:35;;;;;;;3.37;2.37;;;;;;;14.16;100.00;99522.41;5089518;28;20202;-73
2023/05/20 00:35:03;;;;;;;3.77;2.40;;;;;;;14.11;100.00;99515.06;5089495;28;20275;-67
2023/05/20 00:37:30;;;;;;;3.53;2.77;;;;;;;14.08;100.00;99514.47;5089622;28;20681;-73
2023/05/20 00:39:58;;;;;;;3.50;2.37;;;;;;;14.11;100.00;99520.22;5089053;28;20266;-73
2023/05/20 00:42:26;;;;;;;2.83;1.83;;;;;;;14.06;100.00;99521.53;5089679;28;20201;-67
2023/05/20 00:44:53;;;;;;;2.30;1.70;;;;;;;14.05;100.00;99520.72;5089868;28;20220;-67
2023/05/20 00:47:23;;;;;;;2.70;2.13;;;;;;;13.97;100.00;99525.63;5089730;28;20566;-67
2023/05/20 00:49:51;;;;;;;3.67;2.50;;;;;;;13.94;100.00;99523.31;5089210;28;20278;-73
2023/05/20 00:52:18;;;;;;;4.37;2.73;;;;;;;13.80;100.00;99517.50;5089586;28;20197;-73
2023/05/20 00:54:46;;;;;;;2.37;1.90;;;;;;;13.79;100.00;99515.88;5093344;28;20217;-73
2023/05/20 00:57:14;;;;;;;3.57;2.57;;;;;;;13.85;100.00;99513.75;5093232;28;20204;-73
2023/05/20 00:59:41;;;;;;;3.33;2.77;;;;;;;13.80;100.00;99512.34;5093513;28;20224;-73
2023/05/20 01:02:08;;;;;;;2.90;2.33;;;;;;;13.78;100.00;99508.28;5093258;28;20201;-73
2023/05/20 01:04:35;;;;;;;3.13;2.83;;;;;;;13.75;100.00;99504.19;5092950;28;20220;-67
2023/05/20 01:07:05;;;;;;;3.30;2.53;;;;;;;13.81;100.00;99502.88;5092937;28;20194;-72
2023/05/20 01:09:32;;;;;;;3.73;2.50;;;;;;;13.78;100.00;99492.84;5092928;28;20230;-67
2023/05/20 01:12:05;;;;;;;2.77;2.23;;;;;;;13.81;100.00;99498.56;5093204;28;20206;-72
2023/05/20 01:14:41;;;;;;;3.40;2.33;;;;;;;13.78;100.00;99498.81;5092743;28;20221;-67
2023/05/20 01:17:11;;;;;;;5.00;2.17;;;;;;;13.75;100.00;99493.91;5092979;28;20200;-67
2023/05/20 01:19:42;;;;;;;2.97;2.30;;;;;;;13.76;100.00;99490.41;5092940;28;20222;-67
2023/05/20 01:22:12;;;;;;;3.50;2.23;;;;;;;13.76;100.00;99489.59;5092846;28;20210;-67
2023/05/20 01:24:41;;;;;;;7.83;2.90;;;;;;;13.72;100.00;99486.44;5092765;28;20275;-73
2023/05/20 01:27:09;;;;;;;3.00;2.53;;;;;;;13.71;100.00;99482.25;5092760;28;20209;-67
2023/05/20 01:29:37;;;;;;;3.57;2.07;;;;;;;13.70;100.00;99480.63;5092267;28;20240;-67
2023/05/20 01:32:07;;;;;;;2.77;1.90;;;;;;;13.68;100.00;99477.34;5092412;28;20292;-67
2023/05/20 01:34:36;;;;;;;2.53;2.23;;;;;;;13.64;100.00;99475.13;5092413;28;20278;-67
2023/05/20 01:37:05;;;;;;;3.40;2.17;;;;;;;13.64;100.00;99478.50;5092455;28;20190;-67
2023/05/20 01:39:34;;;;;;;4.17;2.67;;;;;;;13.62;100.00;99477.03;5092528;28;20224;-67
2023/05/20 01:42:03;;;;;;;3.17;2.20;;;;;;;13.61;100.00;99481.31;5092495;28;20758;-67
2023/05/20 01:44:30;;;;;;;2.87;2.47;;;;;;;13.60;100.00;99479.69;5092502;28;20292;-73
2023/05/20 01:46:57;;;;;;;2.80;1.70;;;;;;;13.57;100.00;99478.19;5092244;28;20210;-73
2023/05/20 01:49:24;;;;;;;8.53;2.30;;;;;;;13.58;100.00;99476.44;5092123;28;20237;-73
2023/05/20 01:51:51;;;;;;;3.23;2.23;;;;;;;13.57;100.00;99485.09;5092366;28;20194;-67
2023/05/20 01:54:18;;;;;;;3.07;2.37;;;;;;;13.52;100.00;99484.63;5092241;28;20227;-67
2023/05/20 01:56:46;;;;;;;2.77;1.40;;;;;;;13.56;100.00;99478.31;5091927;28;20198;-73
2023/05/20 01:59:14;;;;;;;3.03;2.03;;;;;;;13.50;100.00;99482.19;5091784;28;20311;-73
2023/05/20 02:01:41;;;;;;;3.50;2.47;;;;;;;13.48;100.00;99483.25;5091993;28;20202;-66
2023/05/20 02:04:08;;;;;;;6.60;2.37;;;;;;;13.51;100.00;99473.53;5091673;28;20718;-67
2023/05/20 02:06:34;;;;;;;2.20;2.00;;;;;;;13.46;100.00;99467.13;5091928;28;20255;-66
2023/05/20 02:09:01;;;;;;;3.83;2.53;;;;;;;13.44;100.00;99480.09;5092009;28;20228;-73
2023/05/20 02:11:28;;;;;;;3.17;2.40;;;;;;;13.41;100.00;99475.19;5091804;28;20198;-73
2023/05/20 02:13:55;;;;;;;2.37;1.97;;;;;;;13.35;100.00;99479.06;5091527;28;20248;-73
2023/05/20 02:16:23;;;;;;;2.57;2.33;;;;;;;13.41;100.00;99474.34;5091757;28;20201;-67
2023/05/20 02:18:51;;;;;;;3.10;2.10;;;;;;;13.37;100.00;99468.66;5091885;28;20229;-67
2023/05/20 02:21:19;;;;;;;5.10;3.47;;;;;;;13.30;100.00;99473.47;5091632;28;20316;-73
2023/05/20 02:23:45;;;;;;;4.67;2.90;;;;;;;13.24;100.00;99473.09;5091332;28;20224;-73
2023/05/20 02:26:12;;;;;;;3.77;2.53;;;;;;;13.27;100.00;99471.13;5091534;28;20199;-67
2023/05/20 02:28:43;;;;;;;2.43;2.07;;;;;;;13.22;100.00;99470.63;5091638;28;20747;-73
2023/05/20 02:31:10;;;;;;;2.63;2.10;;;;;;;13.24;100.00;99466.19;5091507;28;20223;-73
2023/05/20 02:33:38;;;;;;;2.23;2.03;;;;;;;13.19;100.00;99465.72;5091259;28;20219;-73
2023/05/20 02:36:05;;;;;;;3.33;2.07;;;;;;;13.18;100.00;99458.97;5091595;28;20201;-67
2023/05/20 02:38:32;;;;;;;3.80;2.90;;;;;;;13.24;100.00;99452.56;5091241;28;20637;-73
2023/05/20 02:40:59;;;;;;;6.40;2.93;;;;;;;13.22;100.00;99465.50;5091227;28;20692;-73
2023/05/20 02:43:26;;;;;;;3.03;2.33;;;;;;;13.18;100.00;99458.97;5091088;28;20217;-67
2023/05/20 02:45:53;;;;;;;3.70;2.40;;;;;;;13.16;100.00;99465.97;5091259;28;20208;-67
2023/05/20 02:48:19;;;;;;;3.10;2.40;;;;;;;13.16;100.00;99465.97;5091168;28;20301;-72
2023/05/20 02:50:48;;;;;;;4.33;2.80;;;;;;;13.16;100.00;99465.16;5090854;28;20240;-67
2023/05/20 02:53:15;;;;;;;3.23;2.40;;;;;;;13.12;100.00;99467.16;5090937;28;20229;-73
2023/05/20 02:55:43;;;;;;;4.17;2.30;;;;;;;13.12;100.00;99472.28;5090849;28;20196;-67
2023/05/20 02:58:12;;;;;;;2.37;1.53;;;;;;;13.12;100.00;99479.97;5091091;28;20242;-67
2023/05/20 03:00:39;;;;;;;3.70;2.57;;;;;;;13.14;100.00;99478.09;5090795;28;20649;-67
2023/05/20 03:03:06;;;;;;;2.90;2.03;;;;;;;13.10;100.00;99476.72;5090897;28;20885;-67
2023/05/20 03:05:36;;;;;;;3.30;2.20;;;;;;;13.10;100.00;99481.84;5090697;28;20200;-67
2023/05/20 03:08:04;;;;;;;2.93;2.30;;;;;;;13.08;100.00;99483.69;5090750;28;20668;-67
2023/05/20 03:10:31;;;;;;;4.90;3.23;;;;;;;13.07;100.00;99476.94;5090777;28;20233;-73
2023/05/20 03:12:58;;;;;;;4.23;2.70;;;;;;;13.07;100.00;99476.94;5090626;28;20645;-67
2023/05/20 03:15:25;;;;;;;4.83;3.53;;;;;;;13.11;100.00;99478.34;5089947;28;20204;-67
2023/05/20 03:17:52;;;;;;;3.67;2.83;;;;;;;13.02;100.00;99474.72;5090544;28;20226;-73
2023/05/20 03:20:19;;;;;;;4.87;2.60;;;;;;;13.07;100.00;99479.50;5090714;28;20195;-67
2023/05/20 03:22:46;;;;;;;3.73;2.50;;;;;;;13.17;100.00;99477.03;5090498;28;20211;-67
2023/05/20 03:25:14;;;;;;;2.53;2.23;;;;;;;13.23;100.00;99487.66;5090665;28;21034;-67
2023/05/20 03:27:41;;;;;;;4.43;2.50;;;;;;;13.17;100.00;99485.56;5090236;28;20208;-67
2023/05/20 03:30:09;;;;;;;4.17;2.63;;;;;;;13.18;100.00;99500.06;5090272;28;20236;-67
2023/05/20 03:32:36;;;;;;;3.33;2.47;;;;;;;13.18;100.00;99504.34;5090245;28;20198;-73
2023/05/20 03:35:03;;;;;;;3.10;2.00;;;;;;;13.15;100.00;99508.00;5090527;28;20692;-67
2023/05/20 03:37:29;;;;;;;4.97;3.23;;;;;;;13.17;100.00;99518.94;5090834;28;20291;-73
2023/05/20 03:39:56;;;;;;;5.30;2.27;;;;;;;13.19;100.00;99517.06;5090127;28;20305;-67
2023/05/20 03:42:24;;;;;;;4.17;2.43;;;;;;;13.22;100.00;99514.28;5090255;28;20264;-73
2023/05/20 03:44:51;;;;;;;3.00;1.97;;;;;;;13.21;100.00;99512.66;5090023;28;20728;-73
2023/05/20 03:47:18;;;;;;;4.00;2.73;;;;;;;13.24;100.00;99511.59;5090092;28;20201;-67
2023/05/20 03:49:45;;;;;;;3.13;2.40;;;;;;;13.35;100.00;99499.59;5089804;28;20322;-67
2023/05/20 03:52:11;;;;;;;6.83;3.33;;;;;;;13.40;100.00;99516.41;5089825;28;21019;-73
2023/05/20 03:54:38;;;;;;;7.03;2.77;;;;;;;13.43;100.00;99503.31;5090069;28;20575;-67
2023/05/20 03:57:05;;;;;;;7.70;2.00;;;;;;;13.49;100.00;99515.69;5089888;28;20254;-73
2023/05/20 03:59:33;;;;;;;5.33;2.33;;;;;;;13.52;100.00;99523.16;5090246;28;20212;-73
2023/05/20 04:02:00;;;;;;;2.37;1.90;;;;;;;13.55;100.00;99520.34;5089946;28;20208;-70
2023/05/20 04:04:27;;;;;;;3.90;2.40;;;;;;;13.55;100.00;99522.91;5089936;28;20224;-67
2023/05/20 04:06:55;;;;;;;4.13;2.73;;;;;;;13.65;100.00;99523.84;5089844;28;20347;-67
2023/05/20 04:09:21;;;;;;;5.57;2.63;;;;;;;13.78;100.00;99523.69;5089643;28;20236;-67
2023/05/20 04:11:48;;;;;;;3.17;2.17;;;;;;;13.81;100.00;99544.00;5090007;28;20634;-72
2023/05/20 04:14:15;;;;;;;3.90;1.93;;;;;;;13.87;100.00;99533.25;5089877;28;20578;-73
2023/05/20 04:16:44;;;;;;;3.43;2.53;;;;;;;13.96;100.00;99536.84;5089469;28;20209;-72
2023/05/20 04:19:11;;;;;;;4.33;2.83;;;;;;;13.97;100.00;99543.63;5089566;28;20222;-73
2023/05/20 04:21:38;;;;;;;3.57;2.23;;;;;;;14.09;100.00;99542.66;5089922;28;20633;-67
2023/05/20 04:24:06;;;;;;;4.30;3.27;;;;;;;14.09;100.00;99539.28;5089599;28;20226;-67
2023/05/20 04:26:34;;;;;;;2.90;2.60;;;;;;;14.11;100.00;99543.34;5090055;28;20197;-67
2023/05/20 04:29:03;;;;;;;7.43;3.53;;;;;;;14.16;100.00;99541.22;5093652;28;20230;-73
2023/05/20 04:31:29;;;;;;;6.20;3.13;;;;;;;14.04;100.00;99542.19;5093750;28;20200;-67
2023/05/20 04:33:58;;;;;;;10.00;3.97;;;;;;;14.23;100.00;99547.53;5093644;28;20214;-67
2023/05/20 04:36:27;;;;;;;10.70;3.03;;;;;;;14.23;100.00;99554.41;5093464;28;20199;-67
2023/05/20 04:38:54;;;;;;;3.93;2.97;;;;;;;14.38;100.00;99560.09;5093870;28;20217;-73
2023/05/20 04:41:21;;;;;;;5.07;2.33;;;;;;;14.38;100.00;99563.47;5093935;28;20255;-71
2023/05/20 04:43:48;;;;;;;4.33;2.80;;;;;;;14.36;100.00;99559.38;5093470;28;20218;-73
2023/05/20 04:46:15;;;;;;;4.17;2.83;;;;;;;14.40;100.00;99561.59;5093532;28;20656;-73
2023/05/20 04:48:42;;;;;;;3.67;2.57;;;;;;;14.56;100.00;99566.34;5093315;28;20222;-73
2023/05/20 04:51:10;;;;;;;6.60;3.47;;;;;;;14.62;100.00;99555.53;5093293;28;20278;-67
2023/05/20 04:53:37;;;;;;;4.63;3.03;;;;;;;14.69;100.00;99556.69;5093193;28;20242;-73
2023/05/20 04:56:04;;;;;;;3.90;2.30;;;;;;;14.83;100.00;99557.31;5093370;28;20199;-67
2023/05/20 04:58:32;;;;;;;5.23;2.80;;;;;;;15.03;100.00;99558.22;5093231;28;20272;-73
2023/05/20 05:01:00;;;;;;;5.63;2.77;;;;;;;15.24;100.00;99565.91;5093280;28;20218;-67
2023/05/20 05:03:26;;;;;;;5.03;3.07;;;;;;;15.30;100.00;99561.09;5092940;28;20233;-67
2023/05/20 05:05:56;;;;;;;5.10;2.53;;;;;;;15.27;100.00;99565.66;5093187;28;20210;-67
2023/05/20 05:08:24;;;;;;;4.93;2.70;;;;;;;15.36;100.00;99564.91;5092908;28;20422;-73
2023/05/20 05:10:51;;;;;;;4.53;2.83;;;;;;;15.48;100.00;99571.59;5093039;28;20707;-67
2023/05/20 05:13:18;;;;;;;5.30;3.00;;;;;;;15.75;100.00;99575.38;5092778;28;20230;-67
2023/05/20 05:15:45;;;;;;;3.20;2.43;;;;;;;15.88;100.00;99575.91;5092849;28;20210;-67
2023/05/20 05:18:11;;;;;;;4.33;3.20;;;;;;;16.14;100.00;99570.25;5092736;28;20227;-73
2023/05/20 05:20:38;;;;;;;4.47;3.00;;;;;;;16.26;100.00;99569.19;5092726;28;20199;-67
2023/05/20 05:23:05;;;;;;;5.63;3.37;;;;;;;16.36;100.00;99575.19;5092785;28;20195;-67
2023/05/20 05:25:34;;;;;;;5.60;3.17;;;;;;;16.71;100.00;99589.28;5092979;28;20590;-67
2023/05/20 05:28:00;;;;;;;4.60;3.00;;;;;;;16.55;100.00;99589.03;5092649;28;20205;-73
2023/05/20 05:30:27;;;;;;;8.03;3.63;;;;;;;16.74;100.00;99579.50;5092320;28;20249;-73
2023/05/20 05:32:54;;;;;;;6.43;3.70;;;;;;;16.93;100.00;99578.69;5092685;28;20207;-67
2023/05/20 05:35:21;;;;;;;6.27;3.13;;;;;;;17.11;100.00;99590.88;5092406;28;20203;-67
2023/05/20 05:37:48;;;;;;;4.00;3.03;;;;;;;17.17;100.00;99587.72;5092346;28;20209;-73
2023/05/20 05:40:15;;;;;;;7.90;3.77;;;;;;;17.26;100.00;99584.28;5092158;28;20200;-67
2023/05/20 05:42:43;;;;;;;5.23;3.43;;;;;;;17.62;100.00;99584.41;5092403;28;20198;-73
2023/05/20 05:45:10;;;;;;;4.53;2.73;;;;;;;17.99;100.00;99591.31;5092509;28;20225;-67
2023/05/20 05:47:37;;;;;;;7.07;3.47;;;;;;;17.83;100.00;99602.28;5092286;28;20190;-73
2023/05/20 05:50:05;;;;;;;5.87;3.33;;;;;;;17.70;100.00;99581.91;5092512;28;20229;-73
2023/05/20 05:52:32;;;;;;;4.83;3.53;;;;;;;17.90;100.00;99597.38;5092427;28;20279;-71
2023/05/20 05:54:58;;;;;;;6.10;3.30;;;;;;;18.14;100.00;99600.19;5092251;28;20275;-67
2023/05/20 05:57:25;;;;;;;5.13;3.10;;;;;;;18.49;100.00;99599.38;5092262;28;20520;-67
2023/05/20 05:59:53;;;;;;;6.53;3.20;;;;;;;18.93;100.00;99614.16;5092240;28;20254;-71
2023/05/20 06:02:21;;;;;;;7.47;3.77;;;;;;;18.93;100.00;99603.78;5091992;28;20258;-67
2023/05/20 06:04:48;;;;;;;5.33;3.50;;;;;;;19.08;100.00;99598.88;5091904;28;20727;-67
2023/05/20 06:07:15;;;;;;;5.47;3.23;;;;;;;18.82;100.00;99598.84;5092038;28;20201;-73
2023/05/20 06:09:42;;;;;;;6.03;3.20;;;;;;;18.47;100.00;99595.31;5091663;28;20227;-67
2023/05/20 06:12:09;;;;;;;6.80;3.60;;;;;;;18.99;100.00;99595.41;5091611;28;20688;-67
2023/05/20 06:14:36;;;;;;;4.90;2.87;;;;;;;19.44;100.00;99609.94;5091857;28;20217;-67
2023/05/20 06:17:04;;;;;;;5.73;3.60;;;;;;;19.09;100.00;99606.50;5091919;28;20208;-73
2023/05/20 06:19:31;;;;;;;6.00;3.00;;;;;;;19.39;100.00;99609.56;5092022;28;20246;-73
2023/05/20 06:21:58;;;;;;;5.27;3.53;;;;;;;19.62;100.00;99605.47;5091664;28;20206;-67
2023/05/20 06:24:25;;;;;;;5.30;2.93;;;;;;;18.97;100.00;99603.34;5091743;28;20223;-68
2023/05/20 06:26:51;;;;;;;5.50;2.80;;;;;;;19.41;100.00;99598.09;5091622;28;20562;-74
2023/05/20 06:29:18;;;;;;;5.13;3.53;;;;;;;19.92;100.00;99605.09;5091450;28;20282;-74
2023/05/20 06:31:45;;;;;;;6.13;3.17;;;;;;;20.23;100.00;99600.16;5091232;28;20227;-67
2023/05/20 06:34:13;;;;;;;5.83;3.20;;;;;;;20.47;100.00;99601.94;5091477;28;20239;-67
2023/05/20 06:36:40;;;;;;;6.10;3.37;;;;;;;20.70;100.00;99594.34;5091200;28;20222;-73
2023/05/20 06:39:11;;;;;;;5.73;3.33;;;;;;;21.08;100.00;99589.41;5091450;28;20683;-67
2023/05/20 06:41:38;;;;;;;5.83;3.70;;;;;;;21.10;100.00;99577.06;5091159;28;20198;-73
2023/05/20 06:44:05;;;;;;;4.47;3.20;;;;;;;20.43;100.00;99585.06;5091197;28;20221;-67
2023/05/20 06:46:32;;;;;;;4.63;3.17;;;;;;;20.81;100.00;99588.81;5091054;28;20198;-67
2023/05/20 06:48:59;;;;;;;5.93;3.17;;;;;;;20.95;100.00;99588.13;5091227;28;20262;-67
2023/05/20 06:51:27;;;;;;;5.13;3.10;;;;;;;21.39;100.00;99592.94;5090111;28;20229;-73
2023/05/20 06:53:54;;;;;;;6.63;3.03;;;;;;;21.31;100.00;99590.31;5091014;28;20222;-73
2023/05/20 06:56:21;;;;;;;6.18;3.40;;;;;;;21.74;100.00;99590.81;5091124;28;20263;-67
2023/05/20 06:58:48;;;;;;;5.82;3.72;;;;;;;21.90;100.00;99590.75;5090940;28;20248;-73
2023/05/20 07:01:15;;;;;;;4.57;2.95;;;;;;;22.10;100.00;99585.06;5090932;28;20447;-68
2023/05/20 07:03:43;;;;;;;4.60;2.80;;;;;;;22.63;100.00;99586.03;5090841;28;20751;-73
2023/05/20 07:06:09;;;;;;;3.33;2.60;;;;;;;22.96;100.00;99580.53;5090882;28;20202;-73
2023/05/20 07:08:38;;;;;;;5.28;3.20;;;;;;;22.64;100.00;99577.22;5090608;28;20222;-67
2023/05/20 07:11:04;;;;;;;5.72;3.65;;;;;;;23.02;99.37;99582.41;5090639;28;20226;-72
2023/05/20 07:13:31;;;;;;;5.13;3.25;;;;;;;23.37;93.84;99588.69;5090303;28;20226;-67
2023/05/20 07:15:58;;;;;;;9.27;2.90;;;;;;;23.51;97.52;99589.69;5090795;28;20201;-73
2023/05/20 07:18:25;;;;;;;5.03;2.97;;;;;;;23.16;95.90;99573.78;5090525;28;20222;-73
2023/05/20 07:20:52;;;;;;;5.63;3.40;;;;;;;23.20;96.61;99572.41;5090536;28;20633;-73
2023/05/20 07:23:19;;;;;;;5.20;3.25;;;;;;;23.51;92.56;99584.47;5090456;28;20717;-67
2023/05/20 07:25:48;;;;;;;4.95;3.53;;;;;;;24.00;97.85;99586.44;5090308;28;20202;-73
2023/05/20 07:28:16;;;;;;;4.40;3.13;;;;;;;24.10;90.74;99588.75;5090518;28;20232;-67
2023/05/20 07:30:45;;;;;;;5.65;3.55;;;;;;;24.23;87.83;99595.88;5089901;28;20311;-68
2023/05/20 07:33:12;;;;;;;5.80;3.22;;;;;;;24.31;76.10;99601.00;5090546;28;20228;-73
2023/05/20 07:35:39;;;;;;;6.78;3.65;;;;;;;23.76;78.69;99597.22;5090568;28;20202;-67
2023/05/20 07:38:05;;;;;;;6.95;3.53;;;;;;;23.84;74.77;99604.94;5090116;28;20193;-67
2023/05/20 07:40:32;;;;;;;6.15;3.35;;;;;;;24.20;78.35;99604.91;5090352;28;20194;-67
2023/05/20 07:43:00;;;;;;;5.82;3.42;;;;;;;24.23;84.85;99603.72;5090249;28;20228;-72
2023/05/20 07:45:27;;;;;;;6.25;3.40;;;;;;;24.36;82.07;99598.63;5090421;28;20275;-73
2023/05/20 07:47:54;;;;;;;7.38;3.78;;;;;;;24.09;79.34;99593.16;5089948;28;20198;-68
2023/05/20 07:50:21;;;;;;;5.60;3.58;;;;;;;24.17;80.19;99595.66;5089932;28;20570;-67
2023/05/20 07:52:47;;;;;;;5.25;3.40;;;;;;;24.33;79.31;99593.78;5089984;28;20191;-72
2023/05/20 07:55:14;;;;;;;5.55;3.50;;;;;;;24.35;77.52;99597.03;5090028;28;20194;-68
2023/05/20 07:57:41;;;;;;;4.07;3.08;;;;;;;24.07;76.10;99589.91;5090075;28;20191;-73
2023/05/20 08:00:12;;;;;;;5.68;3.70;;;;;;;24.29;81.62;99593.34;5090061;28;20229;-73
2023/05/20 08:02:39;;;;;;;4.85;3.15;;;;;;;24.27;77.46;99590.09;5089595;28;20202;-73
2023/05/20 08:05:07;;;;;;;7.00;3.50;;;;;;;24.57;80.22;99592.59;5089999;28;20218;-73
2023/05/20 08:07:34;;;;;;;6.70;3.13;;;;;;;24.51;78.22;99596.78;5089849;28;20198;-68
2023/05/20 08:10:01;;;;;;;6.82;3.53;;;;;;;24.63;77.46;99595.25;5090143;28;20233;-67
2023/05/20 08:12:28;;;;;;;5.60;2.90;;;;;;;24.13;76.01;99591.78;5089772;28;20225;-67
2023/05/20 08:14:54;;;;;;;6.57;4.13;;;;;;;24.33;78.99;99596.41;5089714;28;20230;-67
2023/05/20 08:17:23;;;;;;;8.07;3.72;;;;;;;24.48;79.57;99594.53;5089819;28;20756;-67
2023/05/20 08:19:49;;;;;;;4.68;3.58;;;;;;;24.50;79.64;99589.94;5090016;28;20218;-73
2023/05/20 08:22:16;;;;;;;5.40;3.17;;;;;;;24.86;79.83;99596.84;5089768;28;20197;-73
2023/05/20 08:24:43;;;;;;;5.93;3.40;;;;;;;25.01;74.13;99597.53;5089824;28;20290;-67
2023/05/20 08:27:10;;;;;;;5.65;3.50;;;;;;;25.03;73.00;99598.16;5089804;28;20588;-67
2023/05/20 08:29:36;;;;;;;6.90;3.90;;;;;;;24.95;72.33;99593.06;5089604;28;20263;-73
2023/05/20 08:32:04;;;;;;;5.93;3.85;;;;;;;24.80;69.13;99597.59;5089765;28;20229;-67
2023/05/20 08:34:32;;;;;;;4.88;3.13;;;;;;;24.67;70.65;99606.16;5089517;28;20232;-73
2023/05/20 08:36:58;;;;;;;5.57;3.05;;;;;;;24.49;71.86;99604.00;5089660;28;20674;-72
2023/05/20 08:39:26;;;;;;;4.35;3.05;;;;;;;24.22;67.16;99608.16;5089503;28;20222;-68
2023/05/20 08:41:52;;;;;;;3.95;2.85;;;;;;;24.18;68.50;99607.72;5089296;28;20212;-72
2023/05/20 08:44:21;;;;;;;7.80;3.65;;;;;;;24.13;74.75;99599.63;5089448;28;20241;-67
2023/05/20 08:46:48;;;;;;;4.90;3.20;;;;;;;23.64;75.92;99599.47;5089418;28;20198;-67
2023/05/20 08:49:15;;;;;;;6.20;3.42;;;;;;;23.17;77.73;99605.88;5089529;28;20299;-68
2023/05/20 08:51:45;;;;;;;5.22;3.28;;;;;;;22.71;76.78;99598.97;5089248;28;20234;-72
2023/05/20 08:54:13;;;;;;;5.40;3.38;;;;;;;22.47;79.07;99596.56;5089289;28;20328;-72
2023/05/20 08:56:41;;;;;;;6.10;3.13;;;;;;;22.38;79.20;99583.59;5089492;28;20676;-72
2023/05/20 08:59:09;;;;;;;5.60;3.50;;;;;;;22.15;73.85;99577.56;5089557;28;20706;-73
2023/05/20 09:01:41;;;;;;;8.35;3.75;;;;;;;21.67;77.45;99574.25;5089410;28;20202;-72
2023/05/20 09:04:08;;;;;;;5.97;3.60;;;;;;;20.99;84.51;99575.63;5089016;28;20262;-67
2023/05/20 09:06:44;;;;;;;5.22;3.22;;;;;;;20.87;84.90;99577.75;5089387;28;20194;-67
2023/05/20 09:09:12;;;;;;;6.65;3.80;;;;;;;20.37;88.06;99570.13;5089333;28;20271;-67
2023/05/20 09:11:39;;;;;;;6.75;3.88;;;;;;;20.80;92.59;99572.41;5089026;28;20237;-73
2023/05/20 09:14:06;;;;;;;4.80;3.13;;;;;;;20.79;89.30;99575.16;5090526;28;20214;-72
2023/05/20 09:16:33;;;;;;;6.60;3.80;;;;;;;21.18;84.34;99570.06;5092986;28;20271;-67
2023/05/20 09:19:00;;;;;;;5.43;3.38;;;;;;;21.37;85.52;99562.84;5092997;28;20283;-73
2023/05/20 09:21:27;;;;;;;7.55;3.15;;;;;;;21.38;86.44;99565.31;5092824;28;21063;-67
2023/05/20 09:23:56;;;;;;;7.30;4.00;;;;;;;20.82;86.27;99564.44;5092754;28;20222;-73
2023/05/20 09:26:24;;;;;;;6.57;3.70;;;;;;;20.82;85.35;99563.63;5092854;28;20206;-73
2023/05/20 09:28:51;;;;;;;7.05;3.92;;;;;;;20.69;84.63;99562.34;5092562;28;20225;-73
2023/05/20 09:31:18;;;;;;;7.47;3.80;;;;;;;20.67;87.35;99568.69;5092361;28;20282;-73
2023/05/20 09:33:44;;;;;;;5.33;3.43;;;;;;;20.72;93.70;99566.41;5092479;28;20586;-67
2023/05/20 09:36:12;;;;;;;7.10;4.13;;;;;;;20.91;89.81;99563.44;5092604;28;20198;-67
2023/05/20 09:38:40;;;;;;;5.15;3.00;;;;;;;20.86;87.01;99564.94;5092514;28;20214;-73
2023/05/20 09:41:11;;;;;;;5.13;3.33;;;;;;;20.85;87.29;99568.50;5092501;28;20206;-67
2023/05/20 09:43:39;;;;;;;6.57;3.88;;;;;;;20.95;88.45;99549.16;5092569;28;20218;-73
2023/05/20 09:46:07;;;;;;;5.13;3.53;;;;;;;20.55;86.54;99553.44;5092626;28;20200;-73
2023/05/20 09:48:36;;;;;;;5.07;3.20;;;;;;;21.08;90.49;99542.59;5092380;28;22293;-73
2023/05/20 09:51:05;;;;;;;7.03;3.78;;;;;;;21.23;91.37;99531.34;5092358;28;20317;-74
2023/05/20 09:53:32;;;;;;;5.95;3.42;;;;;;;21.22;91.18;99529.72;5092301;28;20225;-73
2023/05/20 09:55:59;;;;;;;6.25;3.83;;;;;;;21.30;92.53;99525.47;5092513;28;20198;-73
2023/05/20 09:58:28;;;;;;;4.55;3.42;;;;;;;21.42;91.29;99519.75;5092140;28;20226;-68
2023/05/20 10:00:56;;;;;;;6.78;3.97;;;;;;;21.54;90.60;99527.19;5092069;28;20572;-68
2023/05/20 10:03:26;;;;;;;4.90;2.97;;;;;;;21.48;89.14;99518.25;5092111;28;20766;-73
2023/05/20 10:06:05;;;;;;;5.72;3.55;;;;;;;21.46;88.96;99523.63;5092123;28;20693;-73
2023/05/20 10:08:47;;;;;;;5.53;3.55;;;;;;;21.55;90.06;99521.78;5091927;28;20742;-67
2023/05/20 10:11:23;;;;;;;5.28;3.65;;;;;;;21.44;89.32;99523.00;5091871;28;20753;-70
2023/05/20 10:14:07;;;;;;;4.85;3.10;;;;;;;21.41;89.53;99519.91;5091992;28;20225;-73
2023/05/20 10:16:44;;;;;;;7.50;3.50;;;;;;;21.38;88.18;99513.28;5091778;28;20643;-67
2023/05/20 10:19:23;;;;;;;5.55;3.50;;;;;;;21.41;88.71;99512.94;5091738;28;20220;-73
2023/05/20 10:21:57;;;;;;;4.38;3.08;;;;;;;21.30;87.93;99499.47;5091742;28;20201;-73
2023/05/20 10:24:31;;;;;;;5.82;3.70;;;;;;;21.52;90.96;99497.91;5091288;28;20221;-71
2023/05/20 10:26:59;;;;;;;6.28;3.40;;;;;;;21.53;89.61;99500.34;5091430;28;20255;-75
2023/05/20 10:29:27;;;;;;;7.10;3.47;;;;;;;21.63;87.46;99498.31;5091772;28;20225;-68
2023/05/20 10:31:54;;;;;;;6.82;3.72;;;;;;;21.68;87.84;99508.22;5091439;28;20229;-67
2023/05/20 10:34:22;;;;;;;5.93;3.47;;;;;;;21.99;87.36;99502.97;5091436;28;20308;-75
2023/05/20 10:36:58;;;;;;;6.05;3.95;;;;;;;21.92;84.48;99513.25;5091433;28;20206;-68
2023/05/20 10:39:29;;;;;;;5.45;3.85;;;;;;;22.08;84.87;99503.72;5091464;28;20243;-75
2023/05/20 10:42:07;;;;;;;5.45;3.42;;;;;;;22.45;85.08;99515.16;5091182;28;20207;-68
2023/05/20 10:44:45;;;;;;;5.63;3.45;;;;;;;22.63;84.18;99505.22;5091295;28;20755;-67
2023/05/20 10:47:12;;;;;;;8.15;3.60;;;;;;;22.98;86.29;99505.50;5091230;28;20201;-67
2023/05/20 10:49:41;;;;;;;6.97;3.80;;;;;;;22.99;80.96;99507.94;5091024;28;20218;-68
2023/05/20 10:52:10;;;;;;;7.65;4.05;;;;;;;23.23;77.38;99512.03;5091223;28;20240;-67
2023/05/20 10:54:42;;;;;;;6.10;3.90;;;;;;;23.45;80.92;99514.72;5090914;28;20257;-68
2023/05/20 10:57:10;;;;;;;5.88;3.65;;;;;;;23.17;82.35;99510.16;5091338;28;20305;-67
2023/05/20 10:59:37;;;;;;;5.75;3.92;;;;;;;23.37;78.88;99514.81;5090849;28;20230;-75
2023/05/20 11:02:06;;;;;;;6.43;4.00;;;;;;;23.78;78.55;99511.69;5090986;28;20198;-74
2023/05/20 11:04:33;;;;;;;6.13;3.47;;;;;;;23.84;75.20;99513.53;5091109;28;20283;-75
2023/05/20 11:07:00;;;;;;;5.35;3.58;;;;;;;24.23;73.53;99507.03;5090748;28;20206;-75
2023/05/20 11:09:26;;;;;;;3.78;2.80;;;;;;;24.74;79.05;99507.63;5090712;28;20225;-75
2023/05/20 11:11:55;;;;;;;4.85;3.42;;;;;;;24.53;63.46;99510.34;5090653;28;20332;-68
2023/05/20 11:14:22;;;;;;;6.55;3.83;;;;;;;24.12;68.45;99509.19;5090981;28;20222;-67
2023/05/20 11:16:53;;;;;;;6.70;3.88;;;;;;;23.95;62.10;99513.06;5090673;28;20201;-68
2023/05/20 11:19:21;;;;;;;4.13;3.13;;;;;;;23.77;70.99;99499.63;5090610;28;20682;-68
2023/05/20 11:21:48;;;;;;;5.90;3.53;;;;;;;24.12;70.55;99498.72;5090577;28;20201;-75
2023/05/20 11:24:23;;;;;;;4.22;3.22;;;;;;;24.40;71.24;99490.09;5090565;28;20218;-68
2023/05/20 11:26:51;;;;;;;5.30;3.65;;;;;;;24.42;64.50;99485.50;5090516;28;20669;-68
2023/05/20 11:29:18;;;;;;;5.25;3.00;;;;;;;24.09;69.88;99488.66;5090460;28;20220;-67
2023/05/20 11:31:46;;;;;;;5.68;3.60;;;;;;;24.15;68.82;99476.66;5090149;28;20218;-75